KTOR/TOR METAR and TAF weather

Enter ICAO airport designator
Station Type Date Time Source
KTOR METAR 2020/09/20 14:53 UTC NOAA

KTOR 201453Z AUTO 25013G19KT 10SM CLR 19/04 A3007 RMK AO2 SLP138 T01890044 51020


Station Type Date Time Source
KTOR Decoded METAR 2020/09/20 14:53 UTC NOAA

TORRINGTON MUNICIPAL AIRPORT, WY, United States (KTOR) 42-03N 104-09W 1277M
Sep 20, 2020 - 10:53 AM EDT / 2020.09.20 1453 UTC
Wind: from the WSW (250 degrees) at 15 MPH (13 KT) gusting to 22 MPH (19 KT):0
Visibility: 10 mile(s):0
Sky conditions: clear
Temperature: 66.0 F (18.9 C)
Dew Point: 39.9 F (4.4 C)
Relative Humidity: 38%
Pressure (altimeter): 30.07 in. Hg (1018 hPa)
Pressure tendency: 0.06 inches (2.0 hPa) higher than three hours ago
ob: KTOR 201453Z AUTO 25013G19KT 10SM CLR 19/04 A3007 RMK AO2 SLP138 T01890044 51020
cycle: 15

Station Type Date Time Source
KTOR TAF UTC NOAA

Error!

Example: see airport list